Station Historical Data
 
Daily Summary for July 23, 2019 Units:  English    Metric   Both
« Previous Day
Next Day »
Daily Weekly Monthly Yearly Custom
  Current: High: Low: Average:
Temperature: 72.3 °F 72.4 °F 65.2 °F 67.1 °F
Dew Point: 65.8 °F 67.5 °F 65 °F 66 °F
Humidity: 80% 100% 80% 96%
Wind Speed: 5mph 9mph 0mph 1.3mph
Wind Gust: 3.8mph 4.3mph - -
WindENE - - SSW
Pressure: 29.86 in 29.86 in 29.75 in -
Precipitation: 0.19 in      
Historical Graphs
 
 
Tabular Data for July 23, 2019
Time Temperature Dew Point Pressure Wind Wind Speed Wind Gust Humidity Rainfall Rate (Hourly) solar Conditions
00:04 67.4 °F 67.1 °F 29.79 in Calm     99% 0.07 in WeatherDisplay:10.37 W/m2 RA
00:09 67.2 °F 66.9 °F 29.79 in Calm     99% 0.09 in WeatherDisplay:10.37 W/m2 RA
00:14 67.1 °F 66.8 °F 29.79 in Calm     99% 0.1 in WeatherDisplay:10.37 W/m2 RA
00:19 67.1 °F 66.8 °F 29.79 in Calm     99% 0.11 in WeatherDisplay:10.37 W/m2 RA
00:24 67.1 °F 66.8 °F 29.78 in WSW 2.3 mph   99% 0.12 in WeatherDisplay:10.37 W/m2 RA
00:29 66.9 °F 66.6 °F 29.78 in WSW 2 mph   99% 0.12 in WeatherDisplay:10.37 W/m2 RA
00:34 66.9 °F 66.6 °F 29.78 in Calm     99% 0.12 in WeatherDisplay:10.37 W/m2 CLR
00:39 66.9 °F 66.6 °F 29.78 in Calm     99% 0.13 in WeatherDisplay:10.37 W/m2 RA
00:44 66.8 °F 66.5 °F 29.77 in Calm     99% 0.12 in WeatherDisplay:10.37 W/m2 CLR
00:49 66.8 °F 66.5 °F 29.77 in Calm     99% 0.11 in WeatherDisplay:10.37 W/m2 CLR
00:54 66.8 °F 66.5 °F 29.77 in Calm     99% 0.09 in WeatherDisplay:10.37 W/m2 CLR
00:59 66.7 °F 66.4 °F 29.77 in Calm     99% 0.08 in WeatherDisplay:10.37 W/m2 CLR
01:04 66.6 °F 66.3 °F 29.76 in Calm     99% 0.07 in WeatherDisplay:10.37 W/m2 CLR
01:09 66.7 °F 66.4 °F 29.76 in Calm     99% 0.05 in WeatherDisplay:10.37 W/m2 CLR
01:14 66.7 °F 66.4 °F 29.76 in Calm     99% 0.04 in WeatherDisplay:10.37 W/m2 CLR
01:19 66.6 °F 66.3 °F 29.75 in Calm     99% 0.03 in WeatherDisplay:10.37 W/m2 CLR
01:24 66.6 °F 66.3 °F 29.75 in Calm     99% 0.02 in WeatherDisplay:10.37 W/m2 CLR
01:29 66.6 °F 66.3 °F 29.76 in Calm     99% 0.01 in WeatherDisplay:10.37 W/m2 CLR
01:34 66.6 °F 66.3 °F 29.76 in Calm     99% 0.01 in WeatherDisplay:10.37 W/m2 CLR
01:39 66.6 °F 66.3 °F 29.76 in Calm     99% 0 in WeatherDisplay:10.37 W/m2 CLR
01:44 66.5 °F 66.2 °F 29.76 in Calm     99% 0 in WeatherDisplay:10.37 W/m2 CLR
01:49 66.5 °F 66.2 °F 29.76 in Calm     99% 0 in WeatherDisplay:10.37 W/m2 CLR
01:54 66.5 °F 66.2 °F 29.76 in Calm     99% 0 in WeatherDisplay:10.37 W/m2 CLR
01:59 66.4 °F 66.1 °F 29.76 in Calm     99% 0 in WeatherDisplay:10.37 W/m2 CLR
02:04 66.4 °F 66.4 °F 29.76 in Calm     100% 0 in WeatherDisplay:10.37 W/m2 CLR
02:09 66.5 °F 66.5 °F 29.76 in Calm     100% 0.01 in WeatherDisplay:10.37 W/m2 RA
02:14 66.5 °F 66.5 °F 29.76 in WSW 1.2 mph   100% 0.01 in WeatherDisplay:10.37 W/m2 CLR
02:19 66.4 °F 66.4 °F 29.77 in Calm     100% 0.01 in WeatherDisplay:10.37 W/m2 CLR
02:24 66.3 °F 66.3 °F 29.76 in Calm     100% 0.01 in WeatherDisplay:10.37 W/m2 CLR
02:29 66.3 °F 66.3 °F 29.77 in WSW 1 mph 0.1 mph 100% 0.01 in WeatherDisplay:10.37 W/m2 CLR
02:34 66.3 °F 66.3 °F 29.77 in Calm   0.3 mph 100% 0.01 in WeatherDisplay:10.37 W/m2 CLR
02:39 66.2 °F 65.9 °F 29.77 in Calm     99% 0.01 in WeatherDisplay:10.37 W/m2 CLR
02:44 66.2 °F 65.9 °F 29.77 in Calm     99% 0.01 in WeatherDisplay:10.37 W/m2 CLR
02:49 66 °F 65.7 °F 29.77 in NNE 2.3 mph 0.7 mph 99% 0.02 in WeatherDisplay:10.37 W/m2 RA
02:54 66 °F 65.7 °F 29.77 in NNE 3.5 mph 0.5 mph 99% 0.02 in WeatherDisplay:10.37 W/m2 CLR
02:59 66 °F 65.7 °F 29.77 in Calm     99% 0.03 in WeatherDisplay:10.37 W/m2 RA
03:04 66 °F 65.7 °F 29.77 in Calm     99% 0.03 in WeatherDisplay:10.37 W/m2 CLR
03:09 65.9 °F 65.6 °F 29.76 in Calm     99% 0.03 in WeatherDisplay:10.37 W/m2 RA
03:14 65.9 °F 65.6 °F 29.76 in Calm     99% 0.03 in WeatherDisplay:10.37 W/m2 CLR
03:19 65.9 °F 65.6 °F 29.76 in Calm     99% 0.04 in WeatherDisplay:10.37 W/m2 RA
03:24 65.8 °F 65.5 °F 29.76 in Calm     99% 0.05 in WeatherDisplay:10.37 W/m2 RA
03:29 65.9 °F 65.6 °F 29.76 in Calm     99% 0.06 in WeatherDisplay:10.37 W/m2 RA
03:34 65.9 °F 65.6 °F 29.76 in Calm     99% 0.07 in WeatherDisplay:10.37 W/m2 RA
03:39 65.8 °F 65.5 °F 29.75 in Calm     99% 0.08 in WeatherDisplay:10.37 W/m2 RA
03:44 65.7 °F 65.4 °F 29.76 in Calm     99% 0.08 in WeatherDisplay:10.37 W/m2 CLR
03:49 65.7 °F 65.4 °F 29.76 in Calm     99% 0.08 in WeatherDisplay:10.37 W/m2 RA
03:54 65.8 °F 65.5 °F 29.76 in Calm     99% 0.08 in WeatherDisplay:10.37 W/m2 CLR
03:59 65.7 °F 65.7 °F 29.77 in Calm     100% 0.07 in WeatherDisplay:10.37 W/m2 CLR
04:04 65.7 °F 65.7 °F 29.76 in Calm     100% 0.08 in WeatherDisplay:10.37 W/m2 RA
04:09 65.6 °F 65.6 °F 29.76 in Calm     100% 0.07 in WeatherDisplay:10.37 W/m2 CLR
04:14 65.6 °F 65.6 °F 29.76 in Calm     100% 0.07 in WeatherDisplay:10.37 W/m2 CLR
04:19 65.6 °F 65.6 °F 29.76 in Calm     100% 0.06 in WeatherDisplay:10.37 W/m2 CLR
04:24 65.5 °F 65.2 °F 29.76 in Calm     99% 0.05 in WeatherDisplay:10.37 W/m2 CLR
04:29 65.5 °F 65.5 °F 29.77 in Calm     100% 0.04 in WeatherDisplay:10.37 W/m2 CLR
04:34 65.5 °F 65.5 °F 29.76 in Calm     100% 0.03 in WeatherDisplay:10.37 W/m2 CLR
04:39 65.5 °F 65.5 °F 29.77 in Calm     100% 0.02 in WeatherDisplay:10.37 W/m2 CLR
04:44 65.4 °F 65.4 °F 29.76 in Calm     100% 0.02 in WeatherDisplay:10.37 W/m2 CLR
04:49 65.4 °F 65.4 °F 29.76 in Calm     100% 0.01 in WeatherDisplay:10.37 W/m2 CLR
04:54 65.4 °F 65.4 °F 29.77 in Calm     100% 0.01 in WeatherDisplay:10.37 W/m2 CLR
04:59 65.4 °F 65.4 °F 29.77 in Calm     100% 0.01 in WeatherDisplay:10.37 W/m2 CLR
05:04 65.3 °F 65.3 °F 29.77 in Calm     100% 0 in WeatherDisplay:10.37 W/m2 CLR
05:09 65.2 °F 65.2 °F 29.77 in WSW 3.5 mph 0.5 mph 100% 0 in WeatherDisplay:10.37 W/m2 CLR
05:14 65.2 °F 65.2 °F 29.77 in WSW 4 mph 1.1 mph 100% 0 in WeatherDisplay:10.37 W/m2 CLR
05:19 65.3 °F 65.3 °F 29.77 in Calm     100% 0 in WeatherDisplay:10.37 W/m2 CLR
05:24 65.3 °F 65.3 °F 29.78 in Calm     100% 0 in WeatherDisplay:10.37 W/m2 CLR
05:29 65.3 °F 65 °F 29.78 in Calm     99% 0 in WeatherDisplay:10.37 W/m2 CLR
05:34 65.4 °F 65.4 °F 29.78 in Calm     100% 0 in WeatherDisplay:10.37 W/m2 CLR
05:39 65.3 °F 65.3 °F 29.78 in Calm     100% 0 in WeatherDisplay:10.37 W/m2 CLR
05:44 65.3 °F 65 °F 29.78 in Calm     99% 0 in WeatherDisplay:10.37 W/m2 CLR
05:49 65.4 °F 65.4 °F 29.78 in Calm     100% 0 in WeatherDisplay:10.37 W/m2 CLR
05:54 65.4 °F 65.4 °F 29.79 in Calm     100% 0 in WeatherDisplay:10.37 W/m2 CLR
05:59 65.5 °F 65.5 °F 29.79 in Calm     100% 0 in WeatherDisplay:10.37 W/m2 CLR
06:04 65.5 °F 65.5 °F 29.79 in Calm     100% 0 in WeatherDisplay:10.37 W/m2 CLR
06:09 65.6 °F 65.6 °F 29.78 in Calm     100% 0 in WeatherDisplay:10.37 W/m2 CLR
06:14 65.5 °F 65.5 °F 29.78 in Calm     100% 0 in WeatherDisplay:10.37 W/m2 CLR
06:19 65.5 °F 65.5 °F 29.78 in Calm     100% 0 in WeatherDisplay:10.37 W/m2 CLR
06:24 65.5 °F 65.5 °F 29.78 in Calm     100% 0 in WeatherDisplay:10.37 W/m2 CLR
06:29 65.5 °F 65.5 °F 29.79 in Calm     100% 0 in WeatherDisplay:10.37 W/m2 CLR
06:34 65.5 °F 65.5 °F 29.79 in Calm     100% 0 in WeatherDisplay:10.37 W/m2 CLR
06:39 65.5 °F 65.5 °F 29.79 in Calm     100% 0 in WeatherDisplay:10.37 W/m2 CLR
06:44 65.6 °F 65.6 °F 29.80 in Calm     100% 0 in WeatherDisplay:10.37 W/m2 CLR
06:49 65.6 °F 65.6 °F 29.80 in Calm     100% 0 in WeatherDisplay:10.37 W/m2 CLR
06:54 65.6 °F 65.6 °F 29.80 in Calm     100% 0 in WeatherDisplay:10.37 W/m2 CLR
06:59 65.6 °F 65.6 °F 29.80 in Calm     100% 0 in WeatherDisplay:10.37 W/m2 CLR
07:04 65.5 °F 65.5 °F 29.80 in Calm     100% 0 in WeatherDisplay:10.37 W/m2 CLR
07:09 65.4 °F 65.4 °F 29.81 in Calm     100% 0 in WeatherDisplay:10.37 W/m2 CLR
07:14 65.5 °F 65.5 °F 29.80 in Calm     100% 0 in WeatherDisplay:10.37 W/m2 CLR
07:19 65.5 °F 65.5 °F 29.80 in Calm     100% 0 in WeatherDisplay:10.37 W/m2 CLR
07:24 65.5 °F 65.5 °F 29.80 in Calm     100% 0 in WeatherDisplay:10.37 W/m2 CLR
07:29 65.5 °F 65.5 °F 29.81 in Calm     100% 0 in WeatherDisplay:10.37 W/m2 CLR
07:34 65.5 °F 65.5 °F 29.82 in Calm     100% 0 in WeatherDisplay:10.37 W/m2 CLR
07:39 65.4 °F 65.4 °F 29.82 in Calm     100% 0 in WeatherDisplay:10.37 W/m2 CLR
07:44 65.4 °F 65.4 °F 29.82 in Calm     100% 0 in WeatherDisplay:10.37 W/m2 CLR
07:49 65.4 °F 65.4 °F 29.83 in SSW 2 mph 0.3 mph 100% 0 in WeatherDisplay:10.37 W/m2 CLR
07:54 65.5 °F 65.5 °F 29.83 in Calm     100% 0 in WeatherDisplay:10.37 W/m2 CLR
07:59 65.5 °F 65.5 °F 29.84 in Calm     100% 0 in WeatherDisplay:10.37 W/m2 CLR
08:04 65.6 °F 65.6 °F 29.84 in Calm     100% 0 in WeatherDisplay:10.37 W/m2 CLR
08:09 65.5 °F 65.5 °F 29.84 in Calm     100% 0 in WeatherDisplay:10.37 W/m2 CLR
08:14 65.6 °F 65.6 °F 29.84 in Calm     100% 0 in WeatherDisplay:10.37 W/m2 CLR
08:19 65.7 °F 65.7 °F 29.84 in SE 1.2 mph   100% 0 in WeatherDisplay:10.37 W/m2 CLR
08:24 65.7 °F 65.4 °F 29.84 in West 4 mph 1.6 mph 99% 0 in WeatherDisplay:10.37 W/m2 CLR
08:29 65.7 °F 65.4 °F 29.84 in WNW 2.3 mph 0.8 mph 99% 0 in WeatherDisplay:10.37 W/m2 CLR
08:34 65.7 °F 65.4 °F 29.84 in NW 4 mph 1.1 mph 99% 0 in WeatherDisplay:10.37 W/m2 CLR
08:39 65.8 °F 65.5 °F 29.84 in Calm     99% 0 in WeatherDisplay:10.37 W/m2 CLR
08:44 65.7 °F 65.4 °F 29.84 in NW 3.5 mph   99% 0 in WeatherDisplay:10.37 W/m2 CLR
08:48 65.8 °F 65.2 °F 29.84 in Calm     98% 0 in WeatherDisplay:10.37 W/m2 CLR
08:54 66.1 °F 65.8 °F 29.84 in West 4 mph 0.4 mph 99% 0 in WeatherDisplay:10.37 W/m2 CLR
08:59 66.1 °F 65.8 °F 29.84 in Calm     99% 0 in WeatherDisplay:10.37 W/m2 CLR
09:04 66.3 °F 66 °F 29.84 in Calm     99% 0 in WeatherDisplay:10.37 W/m2 CLR
09:09 66.4 °F 65.8 °F 29.85 in Calm     98% 0 in WeatherDisplay:10.37 W/m2 CLR
09:14 66.6 °F 66 °F 29.85 in Calm     98% 0 in WeatherDisplay:10.37 W/m2 CLR
09:19 66.6 °F 66 °F 29.85 in WNW 2.3 mph   98% 0 in WeatherDisplay:10.37 W/m2 CLR
09:24 66.7 °F 65.8 °F 29.85 in Calm     97% 0 in WeatherDisplay:10.37 W/m2 CLR
09:29 66.8 °F 65.9 °F 29.85 in Calm     97% 0 in WeatherDisplay:10.37 W/m2 CLR
09:34 66.8 °F 65.9 °F 29.85 in NNE 4.6 mph 1.7 mph 97% 0 in WeatherDisplay:10.37 W/m2 CLR
09:39 67 °F 66.1 °F 29.85 in NW 6 mph 1.3 mph 97% 0 in WeatherDisplay:10.37 W/m2 CLR
09:44 67.2 °F 66.3 °F 29.85 in Calm     97% 0 in WeatherDisplay:10.37 W/m2 CLR
09:49 67.6 °F 66.4 °F 29.85 in Calm     96% 0 in WeatherDisplay:10.37 W/m2 CLR
09:54 68 °F 67.1 °F 29.85 in Calm     97% 0 in WeatherDisplay:10.37 W/m2 CLR
09:59 68.1 °F 66.9 °F 29.85 in Calm   0.6 mph 96% 0 in WeatherDisplay:10.37 W/m2 CLR
10:04 68.3 °F 66.8 °F 29.85 in NW 1.2 mph   95% 0 in WeatherDisplay:10.37 W/m2 CLR
10:09 68.4 °F 66.6 °F 29.85 in NW 3.5 mph 0.6 mph 94% 0 in WeatherDisplay:10.37 W/m2 CLR
10:14 68.5 °F 66.4 °F 29.84 in NW 3.5 mph 1 mph 93% 0 in WeatherDisplay:10.37 W/m2 CLR
10:19 68.7 °F 66.6 °F 29.85 in NW 4.6 mph 2 mph 93% 0 in WeatherDisplay:10.37 W/m2 CLR
10:24 68.7 °F 66.6 °F 29.86 in Calm     93% 0 in WeatherDisplay:10.37 W/m2 CLR
10:29 68.8 °F 66.7 °F 29.85 in NW 2 mph 0.2 mph 93% 0 in WeatherDisplay:10.37 W/m2 CLR
10:34 68.7 °F 66.3 °F 29.85 in NW 3.5 mph 0.8 mph 92% 0 in WeatherDisplay:10.37 W/m2 CLR
10:39 68.6 °F 66.2 °F 29.84 in North 6.9 mph 3 mph 92% 0 in WeatherDisplay:10.37 W/m2 CLR
10:44 68.5 °F 66.1 °F 29.84 in North 4.6 mph 1.6 mph 92% 0 in WeatherDisplay:10.37 W/m2 CLR
10:49 68.5 °F 66.4 °F 29.85 in Calm   0.2 mph 93% 0 in WeatherDisplay:10.37 W/m2 CLR
10:54 68.4 °F 66 °F 29.84 in Calm     92% 0 in WeatherDisplay:10.37 W/m2 CLR
10:59 68.6 °F 66.5 °F 29.84 in NNW 1 mph   93% 0 in WeatherDisplay:10.37 W/m2 CLR
11:04 68.8 °F 66.7 °F 29.85 in NNW 1.2 mph   93% 0 in WeatherDisplay:10.37 W/m2 CLR
11:09 69 °F 66.9 °F 29.85 in NNW 4 mph 1 mph 93% 0 in WeatherDisplay:10.37 W/m2 CLR
11:14 69 °F 66.3 °F 29.85 in NNW 2 mph 1.2 mph 91% 0 in WeatherDisplay:10.37 W/m2 CLR
11:19 69.2 °F 66.5 °F 29.85 in Calm     91% 0 in WeatherDisplay:10.37 W/m2 CLR
11:24 69.3 °F 66.9 °F 29.84 in NNW 1.2 mph 0.8 mph 92% 0 in WeatherDisplay:10.37 W/m2 CLR
11:29 69.4 °F 66.7 °F 29.85 in NNW 2 mph 2 mph 91% 0 in WeatherDisplay:10.37 W/m2 CLR
11:34 69.6 °F 66.5 °F 29.85 in NNW 3.5 mph 1.7 mph 90% 0 in WeatherDisplay:10.37 W/m2 CLR
11:39 69.9 °F 66.5 °F 29.85 in Calm     89% 0 in WeatherDisplay:10.37 W/m2 CLR
11:44 70.1 °F 67 °F 29.85 in NNW 4.6 mph   90% 0 in WeatherDisplay:10.37 W/m2 CLR
11:49 70.1 °F 66.7 °F 29.85 in NE 4 mph 2.5 mph 89% 0 in WeatherDisplay:10.37 W/m2 CLR
11:54 70 °F 66.3 °F 29.85 in ENE 6 mph 4.3 mph 88% 0 in WeatherDisplay:10.37 W/m2 CLR
11:59 70 °F 66.3 °F 29.85 in Calm     88% 0 in WeatherDisplay:10.37 W/m2 CLR
12:04 70.1 °F 66.4 °F 29.86 in NE 2.3 mph 0.8 mph 88% 0 in WeatherDisplay:10.37 W/m2 CLR
12:09 70.3 °F 66.6 °F 29.85 in Calm   0.4 mph 88% 0 in WeatherDisplay:10.37 W/m2 CLR
12:14 70.6 °F 67.5 °F 29.86 in Calm     90% 0 in WeatherDisplay:10.37 W/m2 CLR
12:19 70.5 °F 66.8 °F 29.86 in Calm     88% 0 in WeatherDisplay:10.37 W/m2 CLR
12:24 70.5 °F 66.8 °F 29.86 in NNE 2.3 mph   88% 0 in WeatherDisplay:10.37 W/m2 CLR
12:29 70.6 °F 67.2 °F 29.86 in North 4.6 mph 0.6 mph 89% 0 in WeatherDisplay:10.37 W/m2 CLR
12:34 70.4 °F 66.3 °F 29.86 in North 5 mph 1 mph 87% 0 in WeatherDisplay:10.37 W/m2 CLR
12:39 70.6 °F 66.5 °F 29.85 in North 5.8 mph 2.5 mph 87% 0 in WeatherDisplay:10.37 W/m2 CLR
12:44 70.7 °F 66.3 °F 29.86 in ENE 4.6 mph 0.2 mph 86% 0 in WeatherDisplay:10.37 W/m2 CLR
12:49 71.1 °F 67 °F 29.86 in NNE 5 mph 2.6 mph 87% 0 in WeatherDisplay:10.37 W/m2 CLR
12:54 71.3 °F 66.2 °F 29.86 in NE 6 mph 1.9 mph 84% 0 in WeatherDisplay:10.37 W/m2 CLR
12:59 71.4 °F 66.7 °F 29.86 in ENE 7 mph 3.4 mph 85% 0 in WeatherDisplay:10.37 W/m2 CLR
13:04 71.6 °F 66.2 °F 29.86 in ENE 9 mph 1 mph 83% 0 in WeatherDisplay:10.37 W/m2 CLR
13:09 71.7 °F 66.6 °F 29.86 in ENE 4 mph 0.4 mph 84% 0 in WeatherDisplay:10.37 W/m2 CLR
13:14 71.9 °F 65.8 °F 29.86 in East 7 mph 2.3 mph 81% 0 in WeatherDisplay:10.37 W/m2 CLR
13:19 71.9 °F 65.8 °F 29.86 in ENE 6.9 mph 4.1 mph 81% 0 in WeatherDisplay:10.37 W/m2 CLR
13:24 72 °F 65.8 °F 29.86 in ENE 5.8 mph 3 mph 81% 0 in WeatherDisplay:10.37 W/m2 CLR
13:29 72.1 °F 65.6 °F 29.86 in ENE 4 mph 2.5 mph 80% 0 in WeatherDisplay:10.37 W/m2 CLR
13:34 72.3 °F 65.8 °F 29.86 in ENE 8.1 mph 2.9 mph 80% 0 in WeatherDisplay:10.37 W/m2 CLR
13:39 72.4 °F 66.2 °F 29.86 in ENE 4.6 mph 2.2 mph 81% 0 in WeatherDisplay:10.37 W/m2 CLR
13:44 72.3 °F 65.8 °F 29.86 in ENE 5 mph 3.8 mph 80% 0 in WeatherDisplay:10.37 W/m2 CLR
Lake Wynonah, (Auburn) PA USA